Flight Track Log - Related Links

Times and Time Zones

All times are in EDT time to prevent confusion due to time zone crossing. See the N5089N flight status page for this flight to view local times or setup timezone preferences in your user account.

Time Position Orientation Groundspeed Altitude Reporting Facility
EDT Latitude Longitude Course Direction KTS MPH feet Rate Location/Type
Fri 06:34:59 PM 41.7486 -72.1942 251° West 81 93 2,100  Level Boston Center
Fri 06:35:53 PM 41.7486 -72.2211 270° West 101 116 2,800 696 Climbing Boston Center
Fri 06:36:08 PM 41.7567 -72.2208 North 106 122 2,900 627 Climbing Boston Center
Fri 06:37:00 PM 41.7683 -72.1997 53° Northeast 83 96 3,500 677 Climbing Boston Center
Fri 06:37:10 PM 41.7717 -72.1956 43° Northeast 90 104 3,600 627 Climbing Boston Center
Fri 06:38:07 PM 41.7875 -72.1694 51° Northeast 91 105 4,200 623 Climbing Boston Center
Fri 06:38:56 PM 41.7986 -72.1475 56° Northeast 96 110 4,700 627 Climbing Boston Center
Fri 06:39:14 PM 41.8033 -72.1378 57° Northeast 92 106 4,900 590 Climbing Boston Center
Fri 06:39:57 PM 41.8136 -72.1183 55° Northeast 94 108 5,300 677 Climbing Boston Center
Fri 06:40:16 PM 41.8194 -72.1072 55° Northeast 94 108 5,600 655 Climbing Boston Center
Fri 06:40:52 PM 41.8278 -72.0919 54° Northeast 91 105 5,900 484 Climbing Boston Center
Fri 06:41:18 PM 41.8344 -72.0797 54° Northeast 94 108 6,100 492 Climbing Boston Center
Fri 06:41:53 PM 41.8425 -72.0628 57° Northeast 95 109 6,400 581 Climbing Boston Center
Fri 06:42:20 PM 41.8506 -72.0469 56° Northeast 98 113 6,700 627 Climbing Boston Center
Fri 06:43:00 PM 41.8606 -72.0289 53° Northeast 97 112 7,100 387 Climbing Boston Center
Fri 06:43:22 PM 41.8669 -72.0175 53° Northeast 98 113 7,100 98 Level Boston Center
Fri 06:44:01 PM 41.8783 -71.9950 56° Northeast 119 137 7,200  Climbing Boston Center
Fri 06:44:24 PM 41.8853 -71.9800 58° Northeast 120 138 7,100 -98 Descending Boston Center
Fri 06:45:02 PM 41.9000 -71.9539 53° Northeast 137 158 7,100 97 Level Boston Center
Fri 06:45:26 PM 41.9092 -71.9356 56° Northeast 135 155 7,200 100 Climbing Boston Center
Fri 06:46:02 PM 41.9222 -71.9100 56° Northeast 135 155 7,200  Level Boston Center
Fri 06:46:28 PM 41.9311 -71.8942 53° Northeast 136 157 7,200  Level Boston Center
Fri 06:47:03 PM 41.9439 -71.8689 56° Northeast 135 155 7,200  Level Boston Center
Fri 06:47:30 PM 41.9528 -71.8525 54° Northeast 136 157 7,200  Level Boston Center
Fri 06:48:10 PM 41.9664 -71.8222 59° Northeast 136 157 7,200  Level Boston Center
Fri 06:48:32 PM 41.9717 -71.8050 68° East 136 157 7,200  Level Boston Center
Fri 06:49:17 PM 41.9711 -71.7689 91° East 129 148 7,200  Level Boston Center
Fri 06:49:35 PM 41.9694 -71.7567 100° East 132 152 7,200 -98 Level Boston Center
Fri 06:50:18 PM 41.9683 -71.7186 92° East 133 153 7,100  Descending Boston Center
Fri 06:50:37 PM 41.9694 -71.7047 84° East 132 152 7,200 107 Climbing Boston Center
Fri 06:51:14 PM 41.9714 -71.6733 85° East 133 153 7,200  Level Boston Center
Fri 06:51:38 PM 41.9728 -71.6553 84° East 132 152 7,200  Level Boston Center
Fri 06:52:20 PM 41.9739 -71.6192 88° East 131 151 7,200  Level Boston Center
Fri 06:52:40 PM 41.9767 -71.6028 77° East 132 152 7,200  Level Boston Center
Fri 06:53:27 PM 41.9789 -71.5633 86° East 134 154 7,200  Level Boston Center
Fri 06:53:42 PM 41.9808 -71.5536 75° East 132 152 7,200  Level Boston Center
Fri 06:54:28 PM 41.9847 -71.5133 83° East 136 157 7,200  Level Boston Center
Fri 06:54:44 PM 41.9853 -71.5033 86° East 132 152 7,200  Level Boston Center
Fri 06:55:29 PM 41.9881 -71.4653 84° East 131 151 7,200  Level Boston Center
Fri 06:55:46 PM 41.9894 -71.4508 83° East 133 153 7,200 -122 Level Boston Center
Fri 06:56:18 PM 41.9903 -71.4225 88° East 135 155 7,100 -97 Descending Boston Center
Fri 06:56:48 PM 41.9925 -71.4011 82° East 133 153 7,100  Level Boston Center
Fri 06:57:19 PM 41.9936 -71.3744 87° East 134 154 7,100  Level Boston Center
Fri 06:57:50 PM 41.9967 -71.3483 81° East 133 153 7,100  Level Boston Center
Fri 06:58:20 PM 41.9969 -71.3267 89° East 130 150 7,100  Level Boston Center
Fri 06:58:52 PM 42.0008 -71.2989 79° East 133 153 7,100 -295 Level Boston Center
Fri 06:59:21 PM 42.0006 -71.2758 91° East 132 152 6,800 -677 Descending Boston Center
Fri 06:59:54 PM 42.0031 -71.2461 84° East 141 162 6,400 -900 Descending Boston Center
Fri 07:00:21 PM 42.0036 -71.2189 88° East 156 180 5,900 -984 Descending Boston Center
Fri 07:00:55 PM 42.0086 -71.1833 79° East 153 176 5,400 -764 Descending Boston Center
Fri 07:01:16 PM 42.0078 -71.1656 94° East 154 177 5,200 -871 Descending Boston Center
Fri 07:01:57 PM 42.0133 -71.1264 79° East 153 176 4,500 -757 Descending Boston Center
Fri 07:02:59 PM 42.0164 -71.0633 86° East 157 181 3,900 -677 Descending Boston Center
Fri 07:04:01 PM 42.0197 -71.0058 86° East 156 180 3,100 -439 Descending Boston Center
Fri 07:05:02 PM 42.0239 -70.9539 84° East 142 163 3,000 -49 Descending Boston Center
Fri 07:06:04 PM 42.0292 -70.9022 82° East 133 153 3,000 48 Level Boston Center
Fri 07:07:06 PM 42.0311 -70.8550 87° East 129 148 3,100  Climbing Boston Center
Fri 07:08:08 PM 42.0333 -70.8108 86° East 129 148 3,000  Descending Boston Center
Fri 07:09:09 PM 42.0372 -70.7633 84° East 129 148 3,100 49 Climbing Boston Center
Fri 07:10:11 PM 42.0403 -70.7156 85° East 129 148 3,100  Level Boston Center
Fri 07:11:13 PM 42.0444 -70.6572 84° East 129 148 3,100 -49 Level Boston Center
Fri 07:12:14 PM 42.0472 -70.6086 86° East 130 150 3,000  Descending Boston Center
Fri 07:13:16 PM 42.0511 -70.5611 84° East 130 150 3,100 97 Climbing Boston Center
Fri 07:14:18 PM 42.0503 -70.5142 91° East 128 147 3,200 48 Climbing Boston Center
Fri 07:15:20 PM 42.0506 -70.4694 90° East 123 142 3,200 -341 Level Boston Center
Fri 07:16:21 PM 42.0450 -70.4158 98° East 131 151 2,500 -488 Descending Boston Center
Fri 07:17:23 PM 42.0381 -70.3675 101° East 135 155 2,200 -339 Descending Boston Center
Fri 07:18:25 PM 42.0272 -70.3150 106° East 129 148 1,800 -290 Descending Boston Center
Fri 07:19:27 PM 42.0186 -70.2703 105° East 126 145 1,600 -195 Descending Boston Center
Fri 07:20:28 PM 42.0133 -70.2267 99° East 124 143 1,400 -195 Descending Boston Center
Fri 07:21:30 PM 42.0142 -70.1814 89° East 124 143 1,200 -97 Descending Boston Center
Fri 07:22:32 PM 42.0331 -70.1456 55° Northeast 122 140 1,200 339 Level Boston Center
Fri 07:23:34 PM 42.0508 -70.1178 49° Northeast 110 127 1,900 488 Climbing Boston Center
Fri 07:24:35 PM 42.0744 -70.1072 18° North 96 110 2,200 -49 Climbing Boston Center
Fri 07:25:37 PM 42.0964 -70.1472 306° West 110 127 1,800 -435 Descending Boston Center
Fri 07:26:39 PM 42.0919 -70.1975 263° West 129 148 1,300 -293 Descending Boston Center
Fri 07:27:40 PM 42.0789 -70.2381 247° West 128 147 1,200 -439 Descending Boston Center
Fri 07:28:42 PM 42.0644 -70.2447 199° South 118 136 400 -537 Descending Boston Center
Fri 07:29:43 PM 42.0728 -70.2175 68° East 90 104 100 -295 Descending Boston Center

Login

Don't have an account? Register now (free) for customized features, flight alerts, and more!